createdAt,value
2024-03-02T00:04:57.899Z,8.27
2024-03-02T00:10:01.801Z,8.29
2024-03-02T00:15:27.334Z,8.28
2024-03-02T00:20:30.355Z,8.26
2024-03-02T00:25:44.626Z,8.26
2024-03-02T00:30:59.304Z,8.27
2024-03-02T00:36:04.389Z,8.27
2024-03-02T00:41:08.796Z,8.23
2024-03-02T00:46:17.458Z,8.19
2024-03-02T00:51:20.406Z,8.17
2024-03-02T00:56:25.016Z,8.15
2024-03-02T01:01:28.502Z,8.12
2024-03-02T01:06:31.866Z,8.11
2024-03-02T01:11:34.685Z,8.11
2024-03-02T01:16:37.538Z,8.09
2024-03-02T01:21:40.388Z,8.08
2024-03-02T01:26:43.391Z,8.05
2024-03-02T01:31:46.469Z,8.02
2024-03-02T01:36:49.332Z,8.03
2024-03-02T01:41:52.344Z,8.05
2024-03-02T01:46:55.090Z,8.05
2024-03-02T01:51:57.983Z,8.03
2024-03-02T01:57:00.860Z,8.01
2024-03-02T02:02:03.777Z,7.99
2024-03-02T02:07:07.864Z,7.97
2024-03-02T02:12:11.482Z,7.98
2024-03-02T02:17:14.264Z,7.95
2024-03-02T02:22:17.051Z,7.89
2024-03-02T02:27:20.203Z,7.84
2024-03-02T02:32:23.031Z,7.80
2024-03-02T02:37:25.804Z,7.76
2024-03-02T02:42:28.579Z,7.70
2024-03-02T02:47:31.478Z,7.64
2024-03-02T02:52:37.528Z,7.59
2024-03-02T02:57:43.718Z,7.54
2024-03-02T03:02:49.192Z,7.51
2024-03-02T03:07:52.564Z,7.50
2024-03-02T03:12:57.351Z,7.47
2024-03-02T03:18:00.517Z,7.44
2024-03-02T03:23:05.422Z,7.42
2024-03-02T03:28:08.289Z,7.42
2024-03-02T03:33:11.073Z,7.42
2024-03-02T03:38:13.842Z,7.38
2024-03-02T03:43:16.640Z,7.34
2024-03-02T03:48:20.276Z,7.33
2024-03-02T03:53:23.641Z,7.32
2024-03-02T03:58:26.386Z,7.31
2024-03-02T04:03:29.163Z,7.32
2024-03-02T04:08:32.012Z,7.34
2024-03-02T04:13:34.842Z,7.34
2024-03-02T04:18:37.899Z,7.36
2024-03-02T04:23:40.695Z,7.38
2024-03-02T04:28:43.430Z,7.37
2024-03-02T04:33:46.249Z,7.35
2024-03-02T04:38:49.299Z,7.34
2024-03-02T04:43:52.043Z,7.33
2024-03-02T04:48:58.357Z,7.32
2024-03-02T04:54:01.243Z,7.34
2024-03-02T04:59:04.020Z,7.34
2024-03-02T05:04:06.812Z,7.32
2024-03-02T05:09:10.507Z,7.31
2024-03-02T05:14:13.294Z,7.33
2024-03-02T05:19:16.043Z,7.34
2024-03-02T05:24:18.799Z,7.32
2024-03-02T05:29:22.180Z,7.32
2024-03-02T05:34:25.001Z,7.33
2024-03-02T05:39:27.948Z,7.31
2024-03-02T05:44:30.776Z,7.28
2024-03-02T05:49:33.565Z,7.26
2024-03-02T05:54:36.417Z,7.28
2024-03-02T05:59:39.197Z,7.30
2024-03-02T06:04:41.957Z,7.30
2024-03-02T06:09:45.947Z,7.28
2024-03-02T06:14:48.772Z,7.28
2024-03-02T06:19:51.631Z,7.31
2024-03-02T06:24:54.571Z,7.33
2024-03-02T06:29:57.443Z,7.34
2024-03-02T06:35:00.986Z,7.33
2024-03-02T06:40:04.035Z,7.34
2024-03-02T06:45:07.345Z,7.39
2024-03-02T06:50:10.538Z,7.40
2024-03-02T06:55:13.270Z,7.39
2024-03-02T07:00:17.014Z,7.41
2024-03-02T07:05:19.962Z,7.44
2024-03-02T07:10:22.778Z,7.46
2024-03-02T07:15:28.629Z,7.49
2024-03-02T07:20:32.085Z,7.50
2024-03-02T07:30:41.379Z,7.55
2024-03-02T07:35:44.477Z,7.60
2024-03-02T07:40:47.387Z,7.66
2024-03-02T07:45:50.289Z,7.70
2024-03-02T07:50:53.146Z,7.77
2024-03-02T07:55:58.157Z,7.87
2024-03-02T08:01:02.847Z,7.94
2024-03-02T08:06:06.104Z,7.97
2024-03-02T08:11:09.002Z,7.99
2024-03-02T08:16:11.828Z,8.08
2024-03-02T08:21:15.355Z,8.11
2024-03-02T08:26:18.163Z,8.12
2024-03-02T08:31:21.030Z,8.19
2024-03-02T08:36:24.859Z,8.31
2024-03-02T08:41:27.690Z,8.39
2024-03-02T08:46:30.528Z,8.47
2024-03-02T08:51:33.495Z,8.58
2024-03-02T08:56:36.670Z,8.59
2024-03-02T09:01:42.899Z,8.63
2024-03-02T09:06:45.924Z,8.67
2024-03-02T09:11:48.817Z,8.72
2024-03-02T09:16:51.616Z,8.76
2024-03-02T09:21:56.877Z,8.80
2024-03-02T09:27:00.381Z,8.84
2024-03-02T09:32:03.565Z,8.93
2024-03-02T09:37:06.453Z,9.01
2024-03-02T09:42:09.305Z,9.05
2024-03-02T09:47:12.197Z,9.13
2024-03-02T09:52:15.980Z,9.21
2024-03-02T09:57:18.866Z,9.33
2024-03-02T10:02:22.135Z,9.41
2024-03-02T10:07:25.023Z,9.56
2024-03-02T10:12:27.863Z,9.68
2024-03-02T10:17:32.790Z,9.77
2024-03-02T10:22:35.753Z,9.86
2024-03-02T10:27:38.555Z,9.91
2024-03-02T10:32:41.492Z,9.94
2024-03-02T10:37:44.411Z,10.02
2024-03-02T10:42:48.366Z,10.12
2024-03-02T10:47:52.135Z,10.26
2024-03-02T10:52:55.334Z,10.42
2024-03-02T10:58:03.508Z,10.58
2024-03-02T11:03:10.460Z,10.64
2024-03-02T11:08:15.763Z,10.75
2024-03-02T11:13:26.076Z,11.07
2024-03-02T11:18:29.928Z,11.38
2024-03-02T11:23:34.774Z,11.54
2024-03-02T11:28:40.194Z,11.57
2024-03-02T11:33:44.304Z,11.56
2024-03-02T11:38:48.432Z,11.49
2024-03-02T11:43:52.311Z,11.45
2024-03-02T11:48:55.238Z,11.43
2024-03-02T11:54:00.722Z,11.45
2024-03-02T11:59:03.961Z,11.42
2024-03-02T12:04:08.369Z,11.32
2024-03-02T12:09:16.118Z,11.26
2024-03-02T12:14:18.998Z,11.24
2024-03-02T12:19:21.882Z,11.24
2024-03-02T12:24:27.987Z,11.29
2024-03-02T12:29:31.439Z,11.39
2024-03-02T12:34:34.413Z,11.47
2024-03-02T12:39:37.424Z,11.48
2024-03-02T12:44:41.081Z,11.57
2024-03-02T12:49:44.131Z,11.60
2024-03-02T12:54:47.010Z,11.58
2024-03-02T12:59:49.911Z,11.52
2024-03-02T13:04:56.765Z,11.58
2024-03-02T13:09:59.691Z,11.67
2024-03-02T13:15:05.097Z,11.64
2024-03-02T13:20:12.111Z,11.63
2024-03-02T13:25:16.337Z,11.58
2024-03-02T13:30:19.314Z,11.52
2024-03-02T13:35:22.976Z,11.45
2024-03-02T13:40:25.826Z,11.46
2024-03-02T13:45:29.239Z,11.45
2024-03-02T13:50:33.039Z,11.41
2024-03-02T13:55:35.923Z,11.37
2024-03-02T14:00:39.946Z,11.32
2024-03-02T14:05:47.514Z,11.31
2024-03-02T14:10:51.249Z,11.25
2024-03-02T14:15:54.081Z,11.21
2024-03-02T14:20:57.836Z,11.22
2024-03-02T14:26:01.070Z,11.18
2024-03-02T14:31:04.443Z,11.12
2024-03-02T14:36:07.602Z,11.05
2024-03-02T14:41:10.599Z,10.99
2024-03-02T14:46:13.724Z,10.92
2024-03-02T14:51:16.620Z,10.86
2024-03-02T14:56:19.733Z,10.80
2024-03-02T15:01:26.058Z,10.77
2024-03-02T15:06:29.064Z,10.75
2024-03-02T15:11:32.028Z,10.73
2024-03-02T15:16:34.948Z,10.72
2024-03-02T15:21:37.819Z,10.73
2024-03-02T15:26:40.814Z,10.73
2024-03-02T15:31:43.630Z,10.71
2024-03-02T15:36:46.526Z,10.64
2024-03-02T15:41:49.384Z,10.53
2024-03-02T15:46:52.339Z,10.44
2024-03-02T15:51:55.273Z,10.37
2024-03-02T15:56:58.184Z,10.31
2024-03-02T16:02:00.999Z,10.26
2024-03-02T16:07:04.688Z,10.24
2024-03-02T16:12:07.772Z,10.20
2024-03-02T16:17:10.749Z,10.17
2024-03-02T16:22:13.830Z,10.10
2024-03-02T16:27:16.768Z,10.05
2024-03-02T16:32:19.720Z,9.99
2024-03-02T16:37:24.841Z,9.94
2024-03-02T16:42:27.748Z,9.88
2024-03-02T16:47:30.612Z,9.84
2024-03-02T16:52:33.482Z,9.78
2024-03-02T16:57:36.350Z,9.73
2024-03-02T17:02:39.222Z,9.68
2024-03-02T17:07:41.988Z,9.65
2024-03-02T17:12:44.899Z,9.61
2024-03-02T17:17:47.764Z,9.58
2024-03-02T17:22:50.612Z,9.55
2024-03-02T17:27:53.433Z,9.51
2024-03-02T17:32:56.299Z,9.49
2024-03-02T17:37:59.155Z,9.45
2024-03-02T17:43:01.986Z,9.41
2024-03-02T17:48:05.376Z,9.36
2024-03-02T17:53:08.251Z,9.33
2024-03-02T17:58:11.337Z,9.30
2024-03-02T18:03:14.294Z,9.26
2024-03-02T18:08:17.201Z,9.25
2024-03-02T18:13:20.092Z,9.21
2024-03-02T18:18:22.942Z,9.16
2024-03-02T18:23:26.284Z,9.14
2024-03-02T18:33:32.146Z,9.09
2024-03-02T18:38:35.133Z,9.07
2024-03-02T18:43:37.966Z,9.03
2024-03-02T18:48:40.974Z,8.99
2024-03-02T18:53:48.034Z,8.95
2024-03-02T18:58:50.904Z,8.94
2024-03-02T19:03:53.759Z,8.91
2024-03-02T19:08:56.642Z,8.87
2024-03-02T19:13:59.397Z,8.81
2024-03-02T19:19:02.203Z,8.76
2024-03-02T19:24:05.384Z,8.71
2024-03-02T19:29:08.390Z,8.65
2024-03-02T19:34:11.207Z,8.58
2024-03-02T19:39:13.985Z,8.53
2024-03-02T19:44:16.862Z,8.47
2024-03-02T19:49:20.638Z,8.42
2024-03-02T19:54:23.537Z,8.38
2024-03-02T19:59:26.794Z,8.35
2024-03-02T20:04:29.662Z,8.31
2024-03-02T20:09:32.716Z,8.28
2024-03-02T20:14:35.532Z,8.27
2024-03-02T20:19:41.870Z,8.25
2024-03-02T20:24:44.680Z,8.23
2024-03-02T20:29:48.870Z,8.19
2024-03-02T20:34:51.742Z,8.14
2024-03-02T20:39:56.172Z,8.11
2024-03-02T20:44:59.197Z,8.07
2024-03-02T20:50:02.031Z,8.04
2024-03-02T20:55:07.036Z,8.05
2024-03-02T21:00:10.250Z,8.04
2024-03-02T21:05:13.184Z,8.00
2024-03-02T21:10:16.635Z,7.97
2024-03-02T21:15:19.620Z,7.95
2024-03-02T21:20:22.460Z,7.95
2024-03-02T21:25:27.967Z,7.96
2024-03-02T21:30:32.061Z,7.96
2024-03-02T21:35:35.205Z,7.94
2024-03-02T21:40:38.076Z,7.91
2024-03-02T21:45:40.961Z,7.90
2024-03-02T21:50:44.468Z,7.91
2024-03-02T21:55:47.257Z,7.91
2024-03-02T22:00:50.156Z,7.88
2024-03-02T22:05:53.252Z,7.83
2024-03-02T22:10:56.378Z,7.81
2024-03-02T22:15:59.286Z,7.81
2024-03-02T22:21:02.123Z,7.78
2024-03-02T22:26:05.621Z,7.73
2024-03-02T22:31:08.451Z,7.68
2024-03-02T22:36:12.581Z,7.67
2024-03-02T22:41:15.392Z,7.64
2024-03-02T22:46:18.268Z,7.59
2024-03-02T22:51:23.320Z,7.54
2024-03-02T22:56:26.173Z,7.55
2024-03-02T23:01:29.082Z,7.56
2024-03-02T23:06:31.913Z,7.54
2024-03-02T23:11:35.282Z,7.51
2024-03-02T23:16:40.157Z,7.46
2024-03-02T23:21:43.007Z,7.45
2024-03-02T23:26:45.792Z,7.46
2024-03-02T23:31:48.671Z,7.43
2024-03-02T23:36:51.507Z,7.39
2024-03-02T23:41:55.709Z,7.37
2024-03-02T23:46:58.515Z,7.38
2024-03-02T23:52:01.355Z,7.34
2024-03-02T23:57:04.228Z,7.31
